sensor_id;sensor_type;location;lat;lon;timestamp;P1;durP1;ratioP1;P2;durP2;ratioP2
34146;SDS011;20423;49.448;9.056;2022-09-23T00:03:37;1.2;;;1;;
34146;SDS011;20423;49.448;9.056;2022-09-23T00:09:02;0.4;;;0.4;;
34146;SDS011;20423;49.448;9.056;2022-09-23T00:14:02;1.6;;;0.8;;
34146;SDS011;20423;49.448;9.056;2022-09-23T00:18:26;1.6;;;1;;
34146;SDS011;20423;49.448;9.056;2022-09-23T00:24:04;1;;;0.8;;
34146;SDS011;20423;49.448;9.056;2022-09-23T00:28:54;3;;;2.2;;
34146;SDS011;20423;49.448;9.056;2022-09-23T00:33:53;1.8;;;1;;
34146;SDS011;20423;49.448;9.056;2022-09-23T00:38:50;2.3;;;1.5;;
34146;SDS011;20423;49.448;9.056;2022-09-23T00:44:37;1.8;;;1.4;;
34146;SDS011;20423;49.448;9.056;2022-09-23T00:48:26;0.6;;;0.4;;
34146;SDS011;20423;49.448;9.056;2022-09-23T00:53:38;0.4;;;0.4;;
34146;SDS011;20423;49.448;9.056;2022-09-23T00:58:50;1;;;0.6;;
34146;SDS011;20423;49.448;9.056;2022-09-23T01:04:08;0.8;;;0.8;;
34146;SDS011;20423;49.448;9.056;2022-09-23T01:09:06;1.4;;;1;;
34146;SDS011;20423;49.448;9.056;2022-09-23T01:13:50;1;;;0.8;;
34146;SDS011;20423;49.448;9.056;2022-09-23T01:18:34;1.4;;;1;;
34146;SDS011;20423;49.448;9.056;2022-09-23T01:24:10;1.2;;;0.6;;
34146;SDS011;20423;49.448;9.056;2022-09-23T01:29:13;0.8;;;0.6;;
34146;SDS011;20423;49.448;9.056;2022-09-23T01:33:54;0.6;;;0.6;;
34146;SDS011;20423;49.448;9.056;2022-09-23T01:38:55;1;;;1;;
34146;SDS011;20423;49.448;9.056;2022-09-23T01:43:35;1.8;;;1.2;;
34146;SDS011;20423;49.448;9.056;2022-09-23T01:49:06;1;;;1;;
34146;SDS011;20423;49.448;9.056;2022-09-23T01:54:05;1;;;0.6;;
34146;SDS011;20423;49.448;9.056;2022-09-23T01:58:55;0.8;;;0.8;;
34146;SDS011;20423;49.448;9.056;2022-09-23T02:03:52;1.4;;;1.2;;
34146;SDS011;20423;49.448;9.056;2022-09-23T02:08:44;1.2;;;1;;
34146;SDS011;20423;49.448;9.056;2022-09-23T02:14:03;1.8;;;1.4;;
34146;SDS011;20423;49.448;9.056;2022-09-23T02:19:09;2.4;;;2;;
34146;SDS011;20423;49.448;9.056;2022-09-23T02:23:59;6.4;;;4.2;;
34146;SDS011;20423;49.448;9.056;2022-09-23T02:28:28;5.6;;;4.8;;
34146;SDS011;20423;49.448;9.056;2022-09-23T02:33:43;2.6;;;2.6;;
34146;SDS011;20423;49.448;9.056;2022-09-23T02:38:42;2.8;;;2;;
34146;SDS011;20423;49.448;9.056;2022-09-23T02:44:02;1.6;;;1.6;;
34146;SDS011;20423;49.448;9.056;2022-09-23T02:49:13;2.4;;;2;;
34146;SDS011;20423;49.448;9.056;2022-09-23T02:53:46;3;;;3;;
34146;SDS011;20423;49.448;9.056;2022-09-23T02:59:12;3.4;;;2;;
34146;SDS011;20423;49.448;9.056;2022-09-23T03:03:57;5.2;;;5;;
34146;SDS011;20423;49.448;9.056;2022-09-23T03:08:57;10.4;;;8.8;;
34146;SDS011;20423;49.448;9.056;2022-09-23T03:18:45;5.8;;;4.6;;
34146;SDS011;20423;49.448;9.056;2022-09-23T03:23:33;12.2;;;10.4;;
34146;SDS011;20423;49.448;9.056;2022-09-23T03:28:26;4.8;;;4.8;;
34146;SDS011;20423;49.448;9.056;2022-09-23T03:33:53;3.2;;;3;;
34146;SDS011;20423;49.448;9.056;2022-09-23T03:39:11;4.2;;;2.8;;
34146;SDS011;20423;49.448;9.056;2022-09-23T03:44:10;2.8;;;2.5;;
34146;SDS011;20423;49.448;9.056;2022-09-23T03:48:26;2.6;;;2;;
34146;SDS011;20423;49.448;9.056;2022-09-23T03:53:32;1.6;;;1.4;;
34146;SDS011;20423;49.448;9.056;2022-09-23T03:59:10;2;;;2;;
34146;SDS011;20423;49.448;9.056;2022-09-23T04:04:10;3.4;;;2.2;;
34146;SDS011;20423;49.448;9.056;2022-09-23T04:08:36;2.6;;;2.4;;
34146;SDS011;20423;49.448;9.056;2022-09-23T04:14:10;1.8;;;1.4;;
34146;SDS011;20423;49.448;9.056;2022-09-23T04:18:38;1.8;;;1.4;;
34146;SDS011;20423;49.448;9.056;2022-09-23T04:24:02;1.2;;;1.2;;
34146;SDS011;20423;49.448;9.056;2022-09-23T04:28:50;1.4;;;0.8;;
34146;SDS011;20423;49.448;9.056;2022-09-23T04:33:54;1.8;;;1.8;;
34146;SDS011;20423;49.448;9.056;2022-09-23T04:38:56;1.8;;;1.6;;
34146;SDS011;20423;49.448;9.056;2022-09-23T04:44:12;2.5;;;2.3;;
34146;SDS011;20423;49.448;9.056;2022-09-23T04:49:02;3;;;2;;
34146;SDS011;20423;49.448;9.056;2022-09-23T04:54:10;1.8;;;1.8;;
34146;SDS011;20423;49.448;9.056;2022-09-23T04:58:40;2.2;;;1.8;;
34146;SDS011;20423;49.448;9.056;2022-09-23T05:03:51;1.2;;;1.2;;
34146;SDS011;20423;49.448;9.056;2022-09-23T05:08:26;1;;;0.8;;
34146;SDS011;20423;49.448;9.056;2022-09-23T05:13:54;1.6;;;1.4;;
34146;SDS011;20423;49.448;9.056;2022-09-23T05:19:10;1.4;;;1.4;;
34146;SDS011;20423;49.448;9.056;2022-09-23T05:23:47;2;;;1.2;;
34146;SDS011;20423;49.448;9.056;2022-09-23T05:28:56;1.4;;;1.2;;
34146;SDS011;20423;49.448;9.056;2022-09-23T05:33:57;1.8;;;1.6;;
34146;SDS011;20423;49.448;9.056;2022-09-23T05:38:50;1.8;;;1.8;;
34146;SDS011;20423;49.448;9.056;2022-09-23T05:43:51;2.8;;;2.8;;
34146;SDS011;20423;49.448;9.056;2022-09-23T05:48:46;5;;;3.2;;
34146;SDS011;20423;49.448;9.056;2022-09-23T05:53:40;4;;;3.6;;
34146;SDS011;20423;49.448;9.056;2022-09-23T05:58:40;5;;;4.4;;
34146;SDS011;20423;49.448;9.056;2022-09-23T06:03:38;6.4;;;5.2;;
34146;SDS011;20423;49.448;9.056;2022-09-23T06:09:09;4.4;;;3.8;;
34146;SDS011;20423;49.448;9.056;2022-09-23T06:14:10;3.4;;;3;;
34146;SDS011;20423;49.448;9.056;2022-09-23T06:18:44;2.6;;;2.2;;
34146;SDS011;20423;49.448;9.056;2022-09-23T06:23:44;3.2;;;2.8;;
34146;SDS011;20423;49.448;9.056;2022-09-23T06:29:09;2.6;;;2.4;;
34146;SDS011;20423;49.448;9.056;2022-09-23T06:34:08;2.2;;;1.8;;
34146;SDS011;20423;49.448;9.056;2022-09-23T06:38:39;2.6;;;2;;
34146;SDS011;20423;49.448;9.056;2022-09-23T06:43:38;4;;;2.8;;
34146;SDS011;20423;49.448;9.056;2022-09-23T06:48:40;3.4;;;2.8;;
34146;SDS011;20423;49.448;9.056;2022-09-23T06:54:02;4.2;;;3.4;;
34146;SDS011;20423;49.448;9.056;2022-09-23T06:58:26;5.4;;;5;;
34146;SDS011;20423;49.448;9.056;2022-09-23T07:03:48;5.8;;;5.2;;
34146;SDS011;20423;49.448;9.056;2022-09-23T07:08:56;5.4;;;4.6;;
34146;SDS011;20423;49.448;9.056;2022-09-23T07:13:50;5;;;5;;
34146;SDS011;20423;49.448;9.056;2022-09-23T07:19:00;4.2;;;3.2;;
34146;SDS011;20423;49.448;9.056;2022-09-23T07:24:08;3;;;2.6;;
34146;SDS011;20423;49.448;9.056;2022-09-23T07:28:59;2.6;;;1.8;;
34146;SDS011;20423;49.448;9.056;2022-09-23T07:33:55;1.8;;;1.8;;
34146;SDS011;20423;49.448;9.056;2022-09-23T07:38:26;1;;;0.8;;
34146;SDS011;20423;49.448;9.056;2022-09-23T07:44:10;2.5;;;1.5;;
34146;SDS011;20423;49.448;9.056;2022-09-23T07:49:10;1.6;;;1.4;;
34146;SDS011;20423;49.448;9.056;2022-09-23T07:54:04;2.2;;;1.6;;
34146;SDS011;20423;49.448;9.056;2022-09-23T07:59:12;1.6;;;1.4;;
34146;SDS011;20423;49.448;9.056;2022-09-23T08:03:56;2.2;;;1.8;;
34146;SDS011;20423;49.448;9.056;2022-09-23T08:08:26;1.8;;;1.4;;
34146;SDS011;20423;49.448;9.056;2022-09-23T08:13:50;2;;;1.6;;
34146;SDS011;20423;49.448;9.056;2022-09-23T08:19:02;3;;;2.4;;
34146;SDS011;20423;49.448;9.056;2022-09-23T08:23:26;1.4;;;1.2;;
34146;SDS011;20423;49.448;9.056;2022-09-23T08:28:38;2.8;;;1.8;;
34146;SDS011;20423;49.448;9.056;2022-09-23T08:33:53;2.8;;;2.4;;
34146;SDS011;20423;49.448;9.056;2022-09-23T08:39:13;1.6;;;1.6;;
34146;SDS011;20423;49.448;9.056;2022-09-23T08:48:27;4;;;3.3;;
34146;SDS011;20423;49.448;9.056;2022-09-23T08:53:44;2.2;;;2.2;;
34146;SDS011;20423;49.448;9.056;2022-09-23T08:59:08;2.6;;;2.6;;
34146;SDS011;20423;49.448;9.056;2022-09-23T09:04:41;5.4;;;4;;
34146;SDS011;20423;49.448;9.056;2022-09-23T09:08:53;3.2;;;2.6;;
34146;SDS011;20423;49.448;9.056;2022-09-23T09:13:29;2;;;2;;
34146;SDS011;20423;49.448;9.056;2022-09-23T09:18:26;3.8;;;3.2;;
34146;SDS011;20423;49.448;9.056;2022-09-23T09:24:11;2.6;;;2.2;;
34146;SDS011;20423;49.448;9.056;2022-09-23T09:28:55;2.6;;;1.8;;
34146;SDS011;20423;49.448;9.056;2022-09-23T09:33:27;4.6;;;4;;
34146;SDS011;20423;49.448;9.056;2022-09-23T09:38:58;4.2;;;3.2;;
34146;SDS011;20423;49.448;9.056;2022-09-23T09:43:46;3;;;2.4;;
34146;SDS011;20423;49.448;9.056;2022-09-23T09:54:16;2.4;;;2.2;;
34146;SDS011;20423;49.448;9.056;2022-09-23T09:59:00;3.6;;;2.4;;
34146;SDS011;20423;49.448;9.056;2022-09-23T10:03:32;3;;;2.4;;
34146;SDS011;20423;49.448;9.056;2022-09-23T10:09:11;3.4;;;2.8;;
34146;SDS011;20423;49.448;9.056;2022-09-23T10:14:15;4;;;3;;
34146;SDS011;20423;49.448;9.056;2022-09-23T10:19:14;3;;;2.4;;
34146;SDS011;20423;49.448;9.056;2022-09-23T10:23:41;3.2;;;2.8;;
34146;SDS011;20423;49.448;9.056;2022-09-23T10:29:22;3.6;;;2;;
34146;SDS011;20423;49.448;9.056;2022-09-23T10:33:59;2.6;;;1.8;;
34146;SDS011;20423;49.448;9.056;2022-09-23T10:38:38;2.2;;;1.6;;
34146;SDS011;20423;49.448;9.056;2022-09-23T10:44:01;2.6;;;2.2;;
34146;SDS011;20423;49.448;9.056;2022-09-23T10:49:14;2.3;;;2.3;;
34146;SDS011;20423;49.448;9.056;2022-09-23T10:54:20;4.2;;;3.2;;
34146;SDS011;20423;49.448;9.056;2022-09-23T11:09:22;2.2;;;1.8;;
34146;SDS011;20423;49.448;9.056;2022-09-23T11:18:53;1.8;;;1.6;;
34146;SDS011;20423;49.448;9.056;2022-09-23T11:23:53;2.4;;;2.4;;
34146;SDS011;20423;49.448;9.056;2022-09-23T11:28:53;4.2;;;3.4;;
34146;SDS011;20423;49.448;9.056;2022-09-23T11:34:20;4.4;;;3.2;;
34146;SDS011;20423;49.448;9.056;2022-09-23T11:39:16;3.8;;;3.2;;
34146;SDS011;20423;49.448;9.056;2022-09-23T11:43:38;3.8;;;3;;
34146;SDS011;20423;49.448;9.056;2022-09-23T11:48:56;2.8;;;2.8;;
34146;SDS011;20423;49.448;9.056;2022-09-23T11:53:30;4.8;;;4.4;;
34146;SDS011;20423;49.448;9.056;2022-09-23T11:59:15;5.4;;;4.4;;
34146;SDS011;20423;49.448;9.056;2022-09-23T12:03:37;3.4;;;2.8;;
34146;SDS011;20423;49.448;9.056;2022-09-23T12:09:00;2.6;;;2.6;;
34146;SDS011;20423;49.448;9.056;2022-09-23T12:14:08;4.2;;;3;;
34146;SDS011;20423;49.448;9.056;2022-09-23T12:19:18;3.2;;;2.4;;
34146;SDS011;20423;49.448;9.056;2022-09-23T12:24:13;3.2;;;2.8;;
34146;SDS011;20423;49.448;9.056;2022-09-23T12:29:12;2.6;;;2.2;;
34146;SDS011;20423;49.448;9.056;2022-09-23T12:33:49;2.4;;;2.2;;
34146;SDS011;20423;49.448;9.056;2022-09-23T12:38:39;1.8;;;1.6;;
34146;SDS011;20423;49.448;9.056;2022-09-23T12:43:41;2.2;;;2;;
34146;SDS011;20423;49.448;9.056;2022-09-23T12:49:01;2.3;;;1.5;;
34146;SDS011;20423;49.448;9.056;2022-09-23T12:54:22;1;;;0.8;;
34146;SDS011;20423;49.448;9.056;2022-09-23T13:03:58;11.2;;;10.8;;
34146;SDS011;20423;49.448;9.056;2022-09-23T13:09:00;7.4;;;6.8;;
34146;SDS011;20423;49.448;9.056;2022-09-23T13:13:52;3.6;;;3.2;;
34146;SDS011;20423;49.448;9.056;2022-09-23T13:18:48;2.8;;;2.4;;
34146;SDS011;20423;49.448;9.056;2022-09-23T13:23:27;2;;;1.8;;
34146;SDS011;20423;49.448;9.056;2022-09-23T13:28:58;2.2;;;2.2;;
34146;SDS011;20423;49.448;9.056;2022-09-23T13:33:50;2.6;;;1.6;;
34146;SDS011;20423;49.448;9.056;2022-09-23T13:39:27;4.6;;;3.6;;
34146;SDS011;20423;49.448;9.056;2022-09-23T13:44:15;5.8;;;5;;
34146;SDS011;20423;49.448;9.056;2022-09-23T13:49:02;3.6;;;3;;
34146;SDS011;20423;49.448;9.056;2022-09-23T13:53:38;9.8;;;9.3;;
34146;SDS011;20423;49.448;9.056;2022-09-23T13:58:44;13.2;;;12.6;;
34146;SDS011;20423;49.448;9.056;2022-09-23T14:04:21;2.8;;;2.8;;
34146;SDS011;20423;49.448;9.056;2022-09-23T14:09:10;2.2;;;2.2;;
34146;SDS011;20423;49.448;9.056;2022-09-23T14:13:27;9;;;8;;
34146;SDS011;20423;49.448;9.056;2022-09-23T14:18:56;8.4;;;7.4;;
34146;SDS011;20423;49.448;9.056;2022-09-23T14:23:32;9.8;;;8.4;;
34146;SDS011;20423;49.448;9.056;2022-09-23T14:29:10;14.2;;;11.4;;
34146;SDS011;20423;49.448;9.056;2022-09-23T14:33:52;15.4;;;13.8;;
34146;SDS011;20423;49.448;9.056;2022-09-23T14:39:01;4.4;;;3.8;;
34146;SDS011;20423;49.448;9.056;2022-09-23T14:43:59;4.8;;;4.6;;
34146;SDS011;20423;49.448;9.056;2022-09-23T14:49:15;4.8;;;3.8;;
34146;SDS011;20423;49.448;9.056;2022-09-23T14:55:13;5.3;;;3.5;;
34146;SDS011;20423;49.448;9.056;2022-09-23T15:00:20;4.2;;;3.8;;
34146;SDS011;20423;49.448;9.056;2022-09-23T15:03:44;3.8;;;3.3;;
34146;SDS011;20423;49.448;9.056;2022-09-23T15:08:38;3;;;2.8;;
34146;SDS011;20423;49.448;9.056;2022-09-23T15:13:51;7.8;;;6.4;;
34146;SDS011;20423;49.448;9.056;2022-09-23T15:18:57;9.4;;;7.4;;
34146;SDS011;20423;49.448;9.056;2022-09-23T15:24:44;8;;;7.8;;
34146;SDS011;20423;49.448;9.056;2022-09-23T15:28:47;6.8;;;6;;
34146;SDS011;20423;49.448;9.056;2022-09-23T15:33:58;6.4;;;5.8;;
34146;SDS011;20423;49.448;9.056;2022-09-23T15:38:54;4.8;;;4.8;;
34146;SDS011;20423;49.448;9.056;2022-09-23T15:43:52;5.2;;;4;;
34146;SDS011;20423;49.448;9.056;2022-09-23T15:48:54;4.4;;;4;;
34146;SDS011;20423;49.448;9.056;2022-09-23T15:54:07;4.2;;;4.2;;
34146;SDS011;20423;49.448;9.056;2022-09-23T15:58:38;3.6;;;3.4;;
34146;SDS011;20423;49.448;9.056;2022-09-23T16:04:08;3.4;;;3;;
34146;SDS011;20423;49.448;9.056;2022-09-23T16:08:53;4;;;2.8;;
34146;SDS011;20423;49.448;9.056;2022-09-23T16:14:13;5.2;;;4;;
34146;SDS011;20423;49.448;9.056;2022-09-23T16:19:14;5.8;;;5.4;;
34146;SDS011;20423;49.448;9.056;2022-09-23T16:23:45;3.3;;;3.3;;
34146;SDS011;20423;49.448;9.056;2022-09-23T16:28:38;4.4;;;3.2;;
34146;SDS011;20423;49.448;9.056;2022-09-23T16:33:54;3.6;;;3.2;;
34146;SDS011;20423;49.448;9.056;2022-09-23T16:39:11;3.4;;;2.2;;
34146;SDS011;20423;49.448;9.056;2022-09-23T16:43:50;3.4;;;2.8;;
34146;SDS011;20423;49.448;9.056;2022-09-23T16:48:26;4.2;;;3.4;;
34146;SDS011;20423;49.448;9.056;2022-09-23T16:53:27;2.8;;;2.4;;
34146;SDS011;20423;49.448;9.056;2022-09-23T16:59:04;5.2;;;3.6;;
34146;SDS011;20423;49.448;9.056;2022-09-23T17:04:00;6.4;;;4.8;;
34146;SDS011;20423;49.448;9.056;2022-09-23T17:08:54;4.8;;;4.4;;
34146;SDS011;20423;49.448;9.056;2022-09-23T17:13:56;5.6;;;4.6;;
34146;SDS011;20423;49.448;9.056;2022-09-23T17:18:51;9.4;;;8;;
34146;SDS011;20423;49.448;9.056;2022-09-23T17:24:05;12.5;;;10.8;;
34146;SDS011;20423;49.448;9.056;2022-09-23T17:29:12;10.4;;;9.4;;
34146;SDS011;20423;49.448;9.056;2022-09-23T17:30:24;33.80;;;16.75;;
34146;SDS011;20423;49.448;9.056;2022-09-23T17:32:51;26.30;;;16.30;;
34146;SDS011;20423;49.448;9.056;2022-09-23T17:33:58;9.6;;;8.6;;
34146;SDS011;20423;49.448;9.056;2022-09-23T17:38:04;33.25;;;15.95;;
34146;SDS011;20423;49.448;9.056;2022-09-23T17:38:40;11.4;;;9.2;;
34146;SDS011;20423;49.448;9.056;2022-09-23T17:40:30;35.40;;;17.50;;
34146;SDS011;20423;49.448;9.056;2022-09-23T17:42:55;35.25;;;17.30;;
34146;SDS011;20423;49.448;9.056;2022-09-23T17:43:39;14.8;;;11.2;;
34146;SDS011;20423;49.448;9.056;2022-09-23T17:45:21;24.90;;;15.80;;
34146;SDS011;20423;49.448;9.056;2022-09-23T17:49:10;18.8;;;14.6;;
34146;SDS011;20423;49.448;9.056;2022-09-23T17:50:16;26.00;;;15.45;;
34146;SDS011;20423;49.448;9.056;2022-09-23T17:54:08;12.8;;;11.6;;
34146;SDS011;20423;49.448;9.056;2022-09-23T17:59:04;8.2;;;7.2;;
34146;SDS011;20423;49.448;9.056;2022-09-23T18:04:12;7.4;;;5.4;;
34146;SDS011;20423;49.448;9.056;2022-09-23T18:08:57;7.8;;;7.2;;
34146;SDS011;20423;49.448;9.056;2022-09-23T18:13:51;8.2;;;6.2;;
34146;SDS011;20423;49.448;9.056;2022-09-23T18:19:02;5.4;;;5.2;;
34146;SDS011;20423;49.448;9.056;2022-09-23T18:24:02;5.5;;;4.8;;
34146;SDS011;20423;49.448;9.056;2022-09-23T18:28:28;5.4;;;4.8;;
34146;SDS011;20423;49.448;9.056;2022-09-23T18:33:26;5;;;4;;
34146;SDS011;20423;49.448;9.056;2022-09-23T18:39:13;5.6;;;5.4;;
34146;SDS011;20423;49.448;9.056;2022-09-23T18:44:14;5;;;4.8;;
34146;SDS011;20423;49.448;9.056;2022-09-23T18:49:14;6.2;;;5;;
34146;SDS011;20423;49.448;9.056;2022-09-23T18:53:44;4.4;;;3.8;;
34146;SDS011;20423;49.448;9.056;2022-09-23T18:58:48;4.4;;;3.2;;
34146;SDS011;20423;49.448;9.056;2022-09-23T19:03:55;3.8;;;3;;
34146;SDS011;20423;49.448;9.056;2022-09-23T19:09:10;4.8;;;3.8;;
34146;SDS011;20423;49.448;9.056;2022-09-23T19:13:53;4.8;;;3.2;;
34146;SDS011;20423;49.448;9.056;2022-09-23T19:18:26;3.6;;;3;;
34146;SDS011;20423;49.448;9.056;2022-09-23T19:23:27;3.8;;;3;;
34146;SDS011;20423;49.448;9.056;2022-09-23T19:29:03;5.4;;;4.4;;
34146;SDS011;20423;49.448;9.056;2022-09-23T19:33:38;4.2;;;3.8;;
34146;SDS011;20423;49.448;9.056;2022-09-23T19:38:53;4.8;;;4.6;;
34146;SDS011;20423;49.448;9.056;2022-09-23T19:43:59;6.4;;;4.6;;
34146;SDS011;20423;49.448;9.056;2022-09-23T19:48:44;5.6;;;5.2;;
34146;SDS011;20423;49.448;9.056;2022-09-23T19:54:01;5.6;;;4.6;;
34146;SDS011;20423;49.448;9.056;2022-09-23T19:59:10;6;;;5.3;;
34146;SDS011;20423;49.448;9.056;2022-09-23T20:03:50;5.2;;;4.2;;
34146;SDS011;20423;49.448;9.056;2022-09-23T20:08:26;4;;;3.8;;
34146;SDS011;20423;49.448;9.056;2022-09-23T20:13:53;4.4;;;3.8;;
34146;SDS011;20423;49.448;9.056;2022-09-23T20:18:41;4.4;;;4;;
34146;SDS011;20423;49.448;9.056;2022-09-23T20:24:10;4.6;;;4.4;;
34146;SDS011;20423;49.448;9.056;2022-09-23T20:29:04;3.6;;;3.2;;
34146;SDS011;20423;49.448;9.056;2022-09-23T20:34:12;3.8;;;3.4;;
34146;SDS011;20423;49.448;9.056;2022-09-23T20:38:56;4.6;;;3.8;;
34146;SDS011;20423;49.448;9.056;2022-09-23T20:43:51;4;;;3.4;;
34146;SDS011;20423;49.448;9.056;2022-09-23T20:48:27;4.8;;;4.4;;
34146;SDS011;20423;49.448;9.056;2022-09-23T20:54:02;4.5;;;4.3;;
34146;SDS011;20423;49.448;9.056;2022-09-23T20:58:33;4.8;;;4.2;;
34146;SDS011;20423;49.448;9.056;2022-09-23T21:03:38;5.4;;;4;;
34146;SDS011;20423;49.448;9.056;2022-09-23T21:08:53;6;;;5;;
34146;SDS011;20423;49.448;9.056;2022-09-23T21:14:10;6;;;5;;
34146;SDS011;20423;49.448;9.056;2022-09-23T21:19:10;5.2;;;4.2;;
34146;SDS011;20423;49.448;9.056;2022-09-23T21:23:46;5;;;4.6;;
34146;SDS011;20423;49.448;9.056;2022-09-23T21:28:47;4.8;;;4.4;;
34146;SDS011;20423;49.448;9.056;2022-09-23T21:33:57;4.6;;;3.8;;
34146;SDS011;20423;49.448;9.056;2022-09-23T21:39:09;6.2;;;5;;
34146;SDS011;20423;49.448;9.056;2022-09-23T21:43:50;4.6;;;3.6;;
34146;SDS011;20423;49.448;9.056;2022-09-23T21:48:28;3.8;;;3.2;;
34146;SDS011;20423;49.448;9.056;2022-09-23T21:53:33;3.8;;;3.4;;
34146;SDS011;20423;49.448;9.056;2022-09-23T21:59:03;3.8;;;3.5;;
34146;SDS011;20423;49.448;9.056;2022-09-23T22:03:38;3.4;;;3;;
34146;SDS011;20423;49.448;9.056;2022-09-23T22:08:39;4.2;;;3.2;;
34146;SDS011;20423;49.448;9.056;2022-09-23T22:13:33;4.6;;;3.4;;
34146;SDS011;20423;49.448;9.056;2022-09-23T22:18:59;7.4;;;5.8;;
34146;SDS011;20423;49.448;9.056;2022-09-23T22:24:03;5.8;;;4.6;;
34146;SDS011;20423;49.448;9.056;2022-09-23T22:29:12;5.6;;;4;;
34146;SDS011;20423;49.448;9.056;2022-09-23T22:33:56;3.4;;;2.2;;
34146;SDS011;20423;49.448;9.056;2022-09-23T22:38:51;3.8;;;2.8;;
34146;SDS011;20423;49.448;9.056;2022-09-23T22:43:38;4.4;;;2.8;;
34146;SDS011;20423;49.448;9.056;2022-09-23T22:49:09;3.2;;;3;;
34146;SDS011;20423;49.448;9.056;2022-09-23T22:54:09;2.6;;;2;;
34146;SDS011;20423;49.448;9.056;2022-09-23T22:59:05;4.5;;;3;;
34146;SDS011;20423;49.448;9.056;2022-09-23T23:04:08;1.8;;;1.8;;
34146;SDS011;20423;49.448;9.056;2022-09-23T23:08:54;2.6;;;2.4;;
34146;SDS011;20423;49.448;9.056;2022-09-23T23:13:50;2.6;;;2.6;;
34146;SDS011;20423;49.448;9.056;2022-09-23T23:18:38;3.4;;;2.8;;
34146;SDS011;20423;49.448;9.056;2022-09-23T23:24:03;3.4;;;2.4;;
34146;SDS011;20423;49.448;9.056;2022-09-23T23:28:26;2.6;;;1.8;;
34146;SDS011;20423;49.448;9.056;2022-09-23T23:33:37;2.2;;;1.8;;
34146;SDS011;20423;49.448;9.056;2022-09-23T23:38:50;3;;;2.6;;
34146;SDS011;20423;49.448;9.056;2022-09-23T23:44:05;3.2;;;2.2;;
34146;SDS011;20423;49.448;9.056;2022-09-23T23:49:06;2.8;;;2.4;;
34146;SDS011;20423;49.448;9.056;2022-09-23T23:53:43;2.6;;;2.4;;
34146;SDS011;20423;49.448;9.056;2022-09-23T23:58:39;3.3;;;3.3;;
